Terminal Aerodrome Forecast
Issued by NWS Jackson, KY

Home | Current Version | Previous Version | Text Only | Print | Product List | Glossary On
Versions: 1 2 3 4 5 6 7 8 9 10 11 12 13
000
FTUS43 KJKL 011100
TAFLOZ
TAF
KLOZ 011136Z 0112/0212 33011G17KT 5SM -SN BKN009 OVC020
     FM011600 33012G22KT P6SM OVC015
     FM012200 33009KT P6SM BKN025
     FM020500 VRB03KT P6SM SCT025=

USA.gov is the U.S. government's official web portal to all federal, state and local government web resources and services.